createdAt,value
2022-12-04T00:00:06.138Z,163.9
2022-12-04T00:10:01.214Z,160.9
2022-12-04T00:15:24.380Z,158.1
2022-12-04T00:20:01.392Z,154.0
2022-12-04T00:25:01.315Z,152.2
2022-12-04T00:30:01.146Z,149.9
2022-12-04T00:35:01.244Z,151.0
2022-12-04T00:40:01.116Z,153.6
2022-12-04T00:45:01.248Z,173.6
2022-12-04T00:50:01.166Z,178.4
2022-12-04T00:55:01.185Z,182.8
2022-12-04T01:00:01.116Z,190.8
2022-12-04T01:05:01.183Z,198.1
2022-12-04T01:10:01.119Z,190.4
2022-12-04T01:20:01.199Z,188.8
2022-12-04T01:25:01.171Z,193.2
2022-12-04T01:30:01.099Z,199.7
2022-12-04T01:35:01.166Z,198.0
2022-12-04T01:40:01.133Z,194.4
2022-12-04T01:45:01.168Z,202.5
2022-12-04T02:00:01.084Z,200.2
2022-12-04T02:20:01.544Z,196.8
2022-12-04T02:25:01.441Z,209.8
2022-12-04T02:40:01.188Z,211.4
2022-12-04T03:00:01.622Z,227.4
2022-12-04T03:05:01.500Z,215.6
2022-12-04T03:10:01.416Z,203.7
2022-12-04T03:15:06.507Z,209.6
2022-12-04T03:20:06.406Z,214.8
2022-12-04T03:25:01.743Z,212.5
2022-12-04T03:30:01.684Z,217.8
2022-12-04T03:35:01.559Z,224.5
2022-12-04T03:40:01.405Z,220.2
2022-12-04T03:45:01.840Z,216.8
2022-12-04T03:50:01.416Z,218.1
2022-12-04T03:55:01.513Z,213.9
2022-12-04T04:00:01.901Z,214.0
2022-12-04T04:20:01.562Z,182.8
2022-12-04T04:25:01.452Z,175.3
2022-12-04T04:30:01.382Z,183.5
2022-12-04T04:35:01.480Z,183.8
2022-12-04T04:40:01.454Z,181.6
2022-12-04T05:00:01.284Z,165.4
2022-12-04T05:05:06.191Z,171.3
2022-12-04T05:10:01.115Z,177.3
2022-12-04T05:15:01.194Z,182.1
2022-12-04T05:20:01.201Z,179.9
2022-12-04T05:25:01.213Z,178.4
2022-12-04T05:30:01.473Z,179.1
2022-12-04T05:35:03.995Z,169.8
2022-12-04T05:40:01.187Z,154.6
2022-12-04T05:45:01.237Z,144.7
2022-12-04T05:50:01.148Z,136.2
2022-12-04T05:55:01.296Z,124.4
2022-12-04T06:00:01.200Z,119.1
2022-12-04T06:05:01.283Z,136.6
2022-12-04T06:15:06.211Z,139.0
2022-12-04T06:25:01.238Z,141.5
2022-12-04T06:30:01.104Z,121.7
2022-12-04T06:35:01.333Z,120.1
2022-12-04T06:40:01.093Z,116.5
2022-12-04T06:45:01.160Z,114.7
2022-12-04T06:50:01.122Z,126.9
2022-12-04T06:55:01.189Z,128.3
2022-12-04T07:00:01.091Z,127.2
2022-12-04T07:05:01.233Z,126.1
2022-12-04T07:10:01.092Z,130.2
2022-12-04T07:15:01.203Z,114.2
2022-12-04T07:20:05.828Z,113.4
2022-12-04T07:25:01.379Z,112.9
2022-12-04T07:30:01.090Z,114.2
2022-12-04T07:35:02.273Z,118.1
2022-12-04T07:40:01.087Z,120.0
2022-12-04T07:45:01.218Z,119.8
2022-12-04T07:50:01.094Z,121.3
2022-12-04T07:55:01.186Z,120.7
2022-12-04T08:00:01.093Z,112.1
2022-12-04T08:05:01.261Z,109.3
2022-12-04T08:10:01.421Z,108.8
2022-12-04T08:15:01.239Z,107.7
2022-12-04T08:20:01.158Z,106.9
2022-12-04T08:30:01.219Z,107.1
2022-12-04T08:35:01.178Z,107.0
2022-12-04T08:40:01.098Z,106.2
2022-12-04T08:45:01.224Z,108.4
2022-12-04T08:50:01.195Z,109.5
2022-12-04T08:55:01.254Z,112.8
2022-12-04T09:00:01.266Z,114.3
2022-12-04T09:05:01.263Z,118.3
2022-12-04T09:10:01.353Z,120.8
2022-12-04T09:15:01.307Z,125.8
2022-12-04T09:20:06.315Z,128.0
2022-12-04T09:25:02.275Z,131.0
2022-12-04T09:30:01.116Z,139.4
2022-12-04T09:35:01.343Z,140.3
2022-12-04T09:40:01.211Z,137.8
2022-12-04T09:45:01.246Z,137.2
2022-12-04T09:50:01.106Z,137.4
2022-12-04T09:55:01.325Z,127.6
2022-12-04T10:00:01.555Z,124.4
2022-12-04T10:05:01.183Z,123.1
2022-12-04T10:10:01.194Z,120.2
2022-12-04T10:15:01.331Z,122.2
2022-12-04T10:30:01.525Z,109.4
2022-12-04T10:35:01.587Z,105.7
2022-12-04T10:40:06.481Z,106.8
2022-12-04T10:45:01.474Z,104.8
2022-12-04T10:50:01.353Z,107.0
2022-12-04T10:55:01.677Z,110.2
2022-12-04T11:00:01.327Z,115.2
2022-12-04T11:05:01.444Z,118.2
2022-12-04T11:10:02.343Z,130.2
2022-12-04T11:30:01.317Z,153.2
2022-12-04T11:50:01.771Z,137.6
2022-12-04T11:55:01.736Z,143.0
2022-12-04T12:00:01.654Z,147.6
2022-12-04T12:20:02.364Z,146.0
2022-12-04T12:40:01.841Z,137.8
2022-12-04T12:45:01.729Z,142.2
2022-12-04T12:50:01.693Z,141.5
2022-12-04T12:55:01.716Z,138.0
2022-12-04T13:10:01.293Z,124.2
2022-12-04T13:30:01.712Z,137.8
2022-12-04T13:35:01.788Z,133.7
2022-12-04T13:50:05.013Z,127.0
2022-12-04T14:10:01.773Z,135.4
2022-12-04T14:30:01.731Z,115.8
2022-12-04T14:35:01.860Z,117.0
2022-12-04T14:40:01.148Z,112.7
2022-12-04T14:45:01.341Z,114.1
2022-12-04T15:00:01.801Z,158.4
2022-12-04T15:05:01.866Z,147.5
2022-12-04T15:10:02.015Z,140.3
2022-12-04T15:15:01.767Z,137.9
2022-12-04T15:30:01.411Z,142.8
2022-12-04T15:35:01.290Z,141.3
2022-12-04T15:40:01.220Z,141.0
2022-12-04T15:45:01.771Z,139.8
2022-12-04T16:00:01.419Z,151.2
2022-12-04T16:20:01.339Z,134.6
2022-12-04T16:25:01.275Z,130.9
2022-12-04T16:30:01.138Z,133.8
2022-12-04T16:35:01.244Z,135.2
2022-12-04T16:40:01.149Z,137.3
2022-12-04T16:45:01.232Z,137.8
2022-12-04T16:50:01.229Z,140.6
2022-12-04T17:00:01.766Z,140.6
2022-12-04T17:10:01.215Z,139.0
2022-12-04T17:15:02.169Z,136.2
2022-12-04T17:20:01.174Z,136.8
2022-12-04T17:25:01.416Z,138.7
2022-12-04T17:30:01.440Z,145.6
2022-12-04T17:35:01.302Z,155.9
2022-12-04T17:40:01.187Z,165.9
2022-12-04T17:45:01.227Z,174.3
2022-12-04T17:55:01.211Z,179.4
2022-12-04T18:00:01.177Z,180.2
2022-12-04T18:05:01.319Z,175.6
2022-12-04T18:10:01.301Z,169.5
2022-12-04T18:15:01.276Z,165.6
2022-12-04T18:20:04.421Z,159.2
2022-12-04T18:25:01.248Z,152.3
2022-12-04T18:30:01.174Z,146.2
2022-12-04T18:35:01.819Z,150.7
2022-12-04T18:45:01.745Z,150.2
2022-12-04T18:50:01.304Z,152.9
2022-12-04T18:55:01.223Z,158.6
2022-12-04T19:00:01.183Z,163.5
2022-12-04T19:05:01.341Z,160.4
2022-12-04T19:10:16.571Z,167.4
2022-12-04T19:15:01.255Z,161.6
2022-12-04T19:20:01.184Z,156.0
2022-12-04T19:25:01.638Z,158.3
2022-12-04T19:30:01.178Z,155.3
2022-12-04T19:35:01.314Z,153.8
2022-12-04T19:40:01.574Z,154.2
2022-12-04T19:45:01.338Z,150.8
2022-12-04T19:50:01.195Z,143.8
2022-12-04T19:55:01.317Z,138.0
2022-12-04T20:00:01.496Z,132.8
2022-12-04T20:05:01.381Z,131.8
2022-12-04T20:10:01.646Z,134.6
2022-12-04T20:15:01.220Z,132.2
2022-12-04T20:20:01.154Z,132.9
2022-12-04T20:25:01.309Z,124.8
2022-12-04T20:35:01.284Z,122.4
2022-12-04T20:40:01.374Z,115.2
2022-12-04T20:45:06.275Z,117.6
2022-12-04T20:50:01.163Z,118.0
2022-12-04T20:55:01.217Z,120.1
2022-12-04T21:00:01.735Z,119.8
2022-12-04T21:05:01.761Z,131.6
2022-12-04T21:10:01.155Z,133.8
2022-12-04T21:15:01.222Z,137.8
2022-12-04T21:20:05.832Z,140.5
2022-12-04T21:30:06.212Z,143.9
2022-12-04T21:35:01.169Z,134.4
2022-12-04T21:40:02.286Z,132.2
2022-12-04T21:45:06.178Z,136.7
2022-12-04T21:50:01.235Z,137.0
2022-12-04T21:55:01.712Z,136.4
2022-12-04T22:00:01.104Z,141.2
2022-12-04T22:05:01.162Z,141.6
2022-12-04T22:10:10.354Z,141.9
2022-12-04T22:15:01.260Z,146.6
2022-12-04T22:25:01.901Z,150.9
2022-12-04T22:30:01.130Z,155.5
2022-12-04T22:35:01.227Z,164.9
2022-12-04T22:40:01.105Z,160.6
2022-12-04T22:45:01.160Z,157.8
2022-12-04T22:50:01.121Z,168.2
2022-12-04T22:55:01.161Z,162.4
2022-12-04T23:00:01.101Z,155.3
2022-12-04T23:05:01.319Z,156.4
2022-12-04T23:15:01.252Z,152.6
2022-12-04T23:20:01.087Z,141.8
2022-12-04T23:30:01.218Z,147.0
2022-12-04T23:35:01.511Z,144.6
2022-12-04T23:40:01.207Z,141.5
2022-12-04T23:45:02.207Z,137.5
2022-12-04T23:50:01.119Z,139.6
2022-12-04T23:55:02.311Z,134.3
